Time;durP1;ratioP1;P1;durP2;ratioP2;P2;SDS_P1;SDS_P2;PMS_P1;PMS_P2;Temp;Humidity;BMP_temperature;BMP_pressure;BME280_temperature;BME280_humidity;BME280_pressure;Samples;Min_cycle;Max_cycle;Signal;HPM_P1;HPM_P2
2023/04/22 00:02:23;;;;;;;12.47;8.33;;;12.60;1.00;;;;;;5012088;28;20983;-78
2023/04/22 00:04:50;;;;;;;11.47;8.80;;;12.60;1.00;;;;;;5012648;28;20462;-77
2023/04/22 00:07:18;;;;;;;13.00;8.13;;;12.50;1.00;;;;;;5010975;28;20487;-79
2023/04/22 00:09:45;;;;;;;12.40;9.10;;;12.50;1.00;;;;;;5010965;28;20555;-79
2023/04/22 00:12:12;;;;;;;13.40;8.13;;;12.50;1.00;;;;;;5008976;28;20461;-78
2023/04/22 00:14:39;;;;;;;12.13;7.87;;;12.50;1.00;;;;;;5007582;28;20477;-79
2023/04/22 00:17:06;;;;;;;12.73;9.00;;;12.50;1.00;;;;;;5008406;28;20471;-78
2023/04/22 00:19:35;;;;;;;12.33;7.87;;;12.50;1.00;;;;;;5008837;28;20485;-77
2023/04/22 00:22:04;;;;;;;12.27;8.00;;;12.40;1.00;;;;;;5010242;28;20492;-78
2023/04/22 00:24:34;;;;;;;12.30;8.90;;;12.40;1.00;;;;;;5011029;28;20608;-78
2023/04/22 00:27:01;;;;;;;12.30;8.40;;;12.40;1.00;;;;;;5007823;28;20521;-77
2023/04/22 00:29:28;;;;;;;15.03;9.97;;;12.30;1.00;;;;;;5010845;28;20476;-77
2023/04/22 00:31:55;;;;;;;14.20;7.67;;;12.30;1.00;;;;;;5009744;28;20466;-78
2023/04/22 00:34:22;;;;;;;13.00;8.50;;;12.30;1.00;;;;;;5007057;28;20558;-78
2023/04/22 00:36:50;;;;;;;12.10;8.83;;;12.20;1.00;;;;;;5008559;28;20464;-77
2023/04/22 00:39:17;;;;;;;12.77;8.80;;;12.10;1.00;;;;;;5009285;28;20468;-78
2023/04/22 00:41:46;;;;;;;12.20;7.90;;;12.10;1.00;;;;;;5007390;28;20484;-80
2023/04/22 00:44:13;;;;;;;16.03;8.40;;;12.10;1.00;;;;;;5006996;28;20457;-78
2023/04/22 00:46:41;;;;;;;12.33;8.07;;;12.10;1.00;;;;;;5011572;28;20465;-78
2023/04/22 00:49:08;;;;;;;11.37;7.70;;;12.00;1.00;;;;;;5007881;28;20479;-79
2023/04/22 00:51:35;;;;;;;13.17;8.13;;;12.00;1.00;;;;;;5006278;28;20613;-77
2023/04/22 00:54:03;;;;;;;12.10;8.60;;;12.00;1.00;;;;;;5007424;28;20567;-77
2023/04/22 00:56:31;;;;;;;11.93;8.73;;;12.00;1.00;;;;;;5006163;28;20519;-79
2023/04/22 00:59:00;;;;;;;12.30;8.57;;;12.00;1.00;;;;;;5005026;28;20542;-79
2023/04/22 01:01:27;;;;;;;13.27;9.03;;;11.90;1.00;;;;;;5007934;28;20464;-77
2023/04/22 01:03:55;;;;;;;12.60;9.17;;;11.90;1.00;;;;;;5008693;28;20480;-78
2023/04/22 01:06:24;;;;;;;12.47;8.57;;;11.90;1.00;;;;;;5008269;28;20538;-77
2023/04/22 01:08:51;;;;;;;11.27;8.00;;;11.90;1.00;;;;;;5008308;28;20480;-79
2023/04/22 01:11:18;;;;;;;14.07;8.70;;;11.80;1.00;;;;;;5006270;28;20502;-79
2023/04/22 01:13:48;;;;;;;16.40;9.13;;;11.80;1.00;;;;;;5003008;28;20463;-79
2023/04/22 01:16:17;;;;;;;11.70;8.70;;;11.80;1.00;;;;;;5006243;28;20459;-77
2023/04/22 01:18:44;;;;;;;13.50;9.13;;;11.70;1.00;;;;;;5004452;28;20483;-78
2023/04/22 01:21:11;;;;;;;12.27;8.13;;;11.70;1.00;;;;;;5004028;28;20517;-78
2023/04/22 01:23:40;;;;;;;15.00;8.97;;;11.70;1.00;;;;;;5007318;28;20467;-79
2023/04/22 01:26:07;;;;;;;13.73;9.20;;;11.70;1.00;;;;;;5006185;28;20560;-77
2023/04/22 01:28:37;;;;;;;14.07;9.10;;;11.60;1.00;;;;;;5006285;28;20476;-79
2023/04/22 01:31:05;;;;;;;15.70;9.20;;;11.60;1.00;;;;;;5005818;28;20548;-79
2023/04/22 01:33:32;;;;;;;12.53;9.33;;;11.60;1.00;;;;;;5001133;28;20464;-78
2023/04/22 01:35:59;;;;;;;12.97;8.20;;;11.60;1.00;;;;;;5004077;28;20472;-79
2023/04/22 01:38:27;;;;;;;14.60;9.30;;;11.60;1.00;;;;;;5007963;28;20553;-79
2023/04/22 01:40:55;;;;;;;12.30;8.10;;;11.60;1.00;;;;;;5001912;28;20525;-78
2023/04/22 01:43:23;;;;;;;11.80;9.30;;;11.50;1.00;;;;;;5006899;28;20991;-79
2023/04/22 01:45:50;;;;;;;11.63;8.50;;;11.50;1.00;;;;;;5006278;28;20591;-79
2023/04/22 01:48:17;;;;;;;12.87;8.90;;;11.50;1.00;;;;;;5013729;28;20467;-79
2023/04/22 01:50:44;;;;;;;15.33;9.37;;;11.50;1.00;;;;;;5012810;28;20499;-78
2023/04/22 01:53:11;;;;;;;12.37;9.40;;;11.50;1.00;;;;;;5012686;28;20459;-77
2023/04/22 01:55:38;;;;;;;12.83;9.57;;;11.50;1.00;;;;;;5011436;28;20452;-78
2023/04/22 01:58:06;;;;;;;13.93;10.00;;;11.40;1.00;;;;;;5011057;28;20470;-77
2023/04/22 02:00:33;;;;;;;12.93;8.73;;;11.40;1.00;;;;;;5012966;28;20429;-79
2023/04/22 02:03:00;;;;;;;12.03;8.83;;;11.40;1.00;;;;;;5011661;28;20468;-77
2023/04/22 02:05:27;;;;;;;13.70;8.90;;;11.40;1.00;;;;;;5012507;28;20498;-78
2023/04/22 02:07:55;;;;;;;13.23;8.63;;;11.40;1.00;;;;;;5014612;28;20650;-77
2023/04/22 02:10:22;;;;;;;15.20;8.90;;;11.30;1.00;;;;;;5013950;28;20555;-78
2023/04/22 02:12:49;;;;;;;13.60;9.20;;;11.40;1.00;;;;;;5014074;28;21252;-80
2023/04/22 02:15:18;;;;;;;13.53;9.53;;;11.30;1.00;;;;;;5014128;28;20456;-78
2023/04/22 02:17:45;;;;;;;13.63;9.00;;;11.30;1.00;;;;;;5014612;28;20480;-78
2023/04/22 02:20:12;;;;;;;14.10;8.50;;;11.30;1.00;;;;;;5014739;28;20538;-78
2023/04/22 02:22:40;;;;;;;14.07;8.93;;;11.20;1.00;;;;;;5016139;28;20506;-79
2023/04/22 02:25:09;;;;;;;12.50;9.57;;;11.20;1.00;;;;;;5012484;28;20840;-79
2023/04/22 02:27:37;;;;;;;13.53;9.20;;;11.20;1.00;;;;;;4999154;28;20610;-79
2023/04/22 02:30:06;;;;;;;12.90;8.70;;;11.20;1.00;;;;;;5013775;28;20498;-78
2023/04/22 02:32:35;;;;;;;13.50;9.27;;;11.10;1.00;;;;;;5009906;28;20458;-78
2023/04/22 02:35:04;;;;;;;12.13;8.90;;;11.10;1.00;;;;;;5006563;28;20526;-78
2023/04/22 02:37:31;;;;;;;13.40;9.87;;;11.10;1.00;;;;;;5012748;28;20471;-78
2023/04/22 02:39:58;;;;;;;12.27;8.83;;;11.00;1.00;;;;;;5014559;28;20463;-79
2023/04/22 02:42:25;;;;;;;12.63;8.50;;;11.00;1.00;;;;;;5009749;28;20454;-78
2023/04/22 02:44:52;;;;;;;14.03;9.30;;;11.00;1.00;;;;;;5010141;28;20545;-77
2023/04/22 02:47:19;;;;;;;14.10;8.87;;;11.00;1.00;;;;;;5008159;28;20901;-77
2023/04/22 02:49:47;;;;;;;12.10;9.17;;;11.00;1.00;;;;;;5008205;28;20481;-79
2023/04/22 02:52:14;;;;;;;12.73;8.23;;;11.00;1.00;;;;;;5012334;28;21041;-78
2023/04/22 02:54:42;;;;;;;13.23;10.10;;;10.90;1.00;;;;;;5015641;28;20458;-79
2023/04/22 02:57:09;;;;;;;12.20;8.67;;;10.90;1.00;;;;;;5016793;28;20580;-78
2023/04/22 02:59:36;;;;;;;12.43;9.03;;;10.90;1.00;;;;;;5012065;28;20485;-79
2023/04/22 03:02:03;;;;;;;11.87;9.50;;;10.80;1.00;;;;;;5011839;28;20846;-78
2023/04/22 03:04:31;;;;;;;13.83;9.60;;;10.80;1.00;;;;;;5014671;28;20419;-78
2023/04/22 03:06:59;;;;;;;13.17;9.50;;;10.80;1.00;;;;;;5015683;28;20493;-79
2023/04/22 03:09:27;;;;;;;14.30;10.30;;;10.80;1.00;;;;;;5011854;28;20913;-78
2023/04/22 03:11:54;;;;;;;14.73;9.50;;;10.80;1.00;;;;;;5013508;28;21335;-79
2023/04/22 03:14:21;;;;;;;12.40;9.43;;;10.70;1.00;;;;;;5012938;28;20506;-77
2023/04/22 03:16:48;;;;;;;11.97;9.27;;;10.70;1.00;;;;;;5009899;28;20470;-76
2023/04/22 03:19:15;;;;;;;12.43;9.10;;;10.70;1.00;;;;;;5010447;28;20463;-77
2023/04/22 03:21:42;;;;;;;11.90;9.37;;;10.70;1.00;;;;;;5011641;28;20996;-76
2023/04/22 03:24:10;;;;;;;12.70;10.23;;;10.70;1.00;;;;;;5010902;28;20565;-77
2023/04/22 03:26:37;;;;;;;15.20;10.20;;;10.70;1.00;;;;;;5010985;28;20525;-76
2023/04/22 03:29:04;;;;;;;12.97;9.27;;;10.60;1.00;;;;;;5011960;28;20462;-77
2023/04/22 03:31:31;;;;;;;15.80;10.23;;;10.70;1.00;;;;;;5008586;28;20490;-75
2023/04/22 03:33:58;;;;;;;12.90;9.70;;;10.60;1.00;;;;;;5012909;28;20545;-76
2023/04/22 03:36:26;;;;;;;12.43;9.37;;;10.60;1.00;;;;;;5011458;28;20470;-76
2023/04/22 03:38:53;;;;;;;14.27;9.57;;;10.50;1.00;;;;;;5004014;28;20889;-78
2023/04/22 03:41:22;;;;;;;17.13;10.27;;;10.50;1.00;;;;;;5011338;28;20574;-76
2023/04/22 03:43:50;;;;;;;15.17;9.40;;;10.50;1.00;;;;;;5007695;28;20473;-76
2023/04/22 03:46:17;;;;;;;14.20;9.77;;;10.40;1.00;;;;;;5014070;28;21030;-76
2023/04/22 03:48:44;;;;;;;20.33;11.57;;;10.30;1.00;;;;;;5013218;28;20466;-75
2023/04/22 03:51:12;;;;;;;13.97;10.40;;;10.30;1.00;;;;;;5012567;28;20484;-75
2023/04/22 03:53:39;;;;;;;14.73;10.30;;;10.30;1.00;;;;;;5011439;28;21163;-76
2023/04/22 03:56:06;;;;;;;14.13;10.77;;;10.40;1.00;;;;;;5004560;28;20565;-76
2023/04/22 03:58:34;;;;;;;13.27;10.67;;;10.40;1.00;;;;;;5011093;28;20566;-77
2023/04/22 04:01:01;;;;;;;14.27;10.57;;;10.40;1.00;;;;;;5007846;28;21021;-76
2023/04/22 04:03:28;;;;;;;14.23;9.43;;;10.30;1.00;;;;;;5004042;28;20474;-76
2023/04/22 04:05:55;;;;;;;15.70;9.93;;;10.30;1.00;;;;;;5004192;28;20506;-76
2023/04/22 04:08:22;;;;;;;13.10;10.83;;;10.30;1.00;;;;;;5009616;28;20520;-77
2023/04/22 04:10:49;;;;;;;13.97;11.00;;;10.20;1.00;;;;;;5010852;28;20491;-76
2023/04/22 04:13:16;;;;;;;17.50;10.50;;;10.20;1.00;;;;;;5009078;28;20542;-77
2023/04/22 04:15:44;;;;;;;12.87;10.40;;;10.20;1.00;;;;;;5007306;28;20561;-77
2023/04/22 04:18:12;;;;;;;14.20;10.53;;;10.20;1.00;;;;;;5009513;28;20472;-77
2023/04/22 04:20:39;;;;;;;16.50;11.40;;;10.20;1.00;;;;;;5013525;28;21052;-77
2023/04/22 04:23:06;;;;;;;15.70;11.53;;;10.20;1.00;;;;;;5012313;28;20526;-77
2023/04/22 04:25:37;;;;;;;14.90;10.13;;;10.20;1.00;;;;;;5008849;28;20854;-76
2023/04/22 04:28:04;;;;;;;13.03;10.17;;;10.20;1.00;;;;;;4991860;28;20542;-75
2023/04/22 04:30:32;;;;;;;15.97;11.10;;;10.20;1.00;;;;;;5009759;28;20501;-76
2023/04/22 04:33:05;;;;;;;15.53;11.30;;;10.20;1.00;;;;;;5010016;28;20486;-75
2023/04/22 04:35:36;;;;;;;14.53;10.77;;;10.10;1.00;;;;;;5010372;28;20919;-76
2023/04/22 04:38:04;;;;;;;14.70;10.70;;;10.20;1.00;;;;;;5012003;28;20685;-75
2023/04/22 04:40:31;;;;;;;15.57;11.20;;;10.20;1.00;;;;;;4986583;28;20538;-75
2023/04/22 04:43:01;;;;;;;13.83;11.33;;;10.20;1.00;;;;;;5010856;28;20631;-75
2023/04/22 04:45:28;;;;;;;14.50;10.20;;;10.20;1.00;;;;;;5012610;28;20501;-77
2023/04/22 04:47:55;;;;;;;15.67;11.60;;;10.20;1.00;;;;;;5010923;28;20463;-76
2023/04/22 04:50:26;;;;;;;16.33;12.20;;;10.20;1.00;;;;;;5005239;28;20560;-76
2023/04/22 04:52:54;;;;;;;13.00;10.60;;;10.30;1.00;;;;;;5011734;28;20899;-76
2023/04/22 04:55:21;;;;;;;14.40;11.20;;;10.20;1.00;;;;;;5011177;28;20480;-76
2023/04/22 04:57:48;;;;;;;14.53;11.83;;;10.20;1.00;;;;;;5009676;28;20917;-76
2023/04/22 05:00:15;;;;;;;15.70;11.23;;;10.20;1.00;;;;;;5007441;28;20464;-75
2023/04/22 05:02:42;;;;;;;17.20;12.07;;;10.30;1.00;;;;;;5008221;28;20951;-76
2023/04/22 05:05:11;;;;;;;14.00;10.67;;;10.30;1.00;;;;;;5012424;28;20434;-76
2023/04/22 05:07:39;;;;;;;14.50;11.27;;;10.30;1.00;;;;;;5012565;28;20549;-76
2023/04/22 05:10:08;;;;;;;17.90;11.80;;;10.40;1.00;;;;;;5007043;28;20471;-76
2023/04/22 05:12:34;;;;;;;16.63;11.60;;;10.50;1.00;;;;;;5012617;28;20546;-77
2023/04/22 05:15:04;;;;;;;15.40;10.90;;;10.50;1.00;;;;;;5008393;28;20471;-76
2023/04/22 05:17:31;;;;;;;18.00;12.27;;;10.50;1.00;;;;;;5009280;28;20589;-77
2023/04/22 05:19:58;;;;;;;15.30;12.23;;;10.60;1.00;;;;;;5007106;28;20454;-76
2023/04/22 05:22:25;;;;;;;13.83;10.90;;;10.70;1.00;;;;;;5013848;28;20550;-76
2023/04/22 05:24:53;;;;;;;14.70;11.23;;;10.70;1.00;;;;;;5014011;28;20502;-75
2023/04/22 05:27:20;;;;;;;13.90;10.93;;;10.70;1.00;;;;;;5006589;28;21834;-76
2023/04/22 05:29:47;;;;;;;16.30;11.50;;;10.80;1.00;;;;;;5011341;28;20455;-75
2023/04/22 05:32:14;;;;;;;16.40;11.70;;;11.00;1.00;;;;;;5012818;28;20455;-74
2023/04/22 05:34:41;;;;;;;16.30;11.90;;;11.10;1.00;;;;;;5009099;28;20446;-75
2023/04/22 05:37:09;;;;;;;15.43;11.07;;;11.00;1.00;;;;;;5014407;28;20462;-76
2023/04/22 05:39:36;;;;;;;14.70;12.17;;;11.00;1.00;;;;;;5007619;28;20500;-76
2023/04/22 05:42:05;;;;;;;14.27;11.43;;;11.10;1.00;;;;;;5010477;28;20473;-77
2023/04/22 05:44:32;;;;;;;16.33;12.20;;;11.20;1.00;;;;;;5011694;28;20556;-77
2023/04/22 05:46:59;;;;;;;15.77;12.10;;;11.40;1.00;;;;;;5012367;28;20455;-77
2023/04/22 05:49:26;;;;;;;19.07;12.23;;;11.20;1.00;;;;;;5011737;28;20569;-76
2023/04/22 05:51:53;;;;;;;17.03;11.77;;;11.30;1.00;;;;;;5011873;28;20501;-77
2023/04/22 05:54:20;;;;;;;20.67;12.13;;;11.30;1.00;;;;;;5014695;28;20549;-76
2023/04/22 05:56:47;;;;;;;16.27;11.90;;;11.40;1.00;;;;;;5014937;28;20509;-76
2023/04/22 05:59:15;;;;;;;17.33;11.93;;;11.50;1.00;;;;;;5015307;28;20952;-76
2023/04/22 06:01:43;;;;;;;15.30;11.63;;;11.60;1.00;;;;;;5007509;28;20480;-76
2023/04/22 06:04:11;;;;;;;14.97;11.60;;;11.80;1.00;;;;;;5005657;28;20871;-77
2023/04/22 06:06:38;;;;;;;17.50;11.00;;;11.90;1.00;;;;;;5012704;28;20471;-76
2023/04/22 06:09:05;;;;;;;15.23;11.37;;;12.10;1.00;;;;;;5017101;28;20479;-77
2023/04/22 06:11:32;;;;;;;16.90;11.70;;;12.10;1.00;;;;;;5012067;28;20469;-76
2023/04/22 06:14:00;;;;;;;16.30;11.40;;;12.30;1.00;;;;;;5010123;28;20584;-75
2023/04/22 06:16:28;;;;;;;16.00;10.93;;;12.40;1.00;;;;;;5015298;28;20900;-76
2023/04/22 06:18:55;;;;;;;15.27;11.60;;;12.40;1.00;;;;;;5012282;28;20464;-76
2023/04/22 06:21:22;;;;;;;13.37;10.53;;;12.30;1.00;;;;;;5012204;28;20538;-76
2023/04/22 06:23:49;;;;;;;17.07;11.77;;;12.30;1.00;;;;;;5013357;28;20469;-76
2023/04/22 06:26:16;;;;;;;14.30;10.73;;;12.30;1.00;;;;;;5014948;28;20476;-77
2023/04/22 06:28:43;;;;;;;18.03;10.80;;;12.40;1.00;;;;;;5014873;28;20981;-78
2023/04/22 06:31:10;;;;;;;16.93;11.70;;;12.50;1.00;;;;;;5012706;28;20515;-77
2023/04/22 06:33:39;;;;;;;15.50;11.80;;;12.70;1.00;;;;;;5010449;28;20538;-77
2023/04/22 06:36:06;;;;;;;14.60;10.67;;;12.70;1.00;;;;;;5013946;28;20840;-77
2023/04/22 06:38:34;;;;;;;15.73;10.30;;;12.80;1.00;;;;;;5014667;28;20477;-77
2023/04/22 06:41:03;;;;;;;14.57;11.30;;;13.00;1.00;;;;;;5006784;28;20559;-78
2023/04/22 06:43:30;;;;;;;14.93;10.70;;;13.10;1.00;;;;;;5010476;28;20596;-78
2023/04/22 06:45:57;;;;;;;14.47;10.53;;;13.30;1.00;;;;;;5012202;28;20455;-76
2023/04/22 06:48:26;;;;;;;15.37;10.17;;;13.40;1.00;;;;;;5010724;28;20464;-77
2023/04/22 06:50:54;;;;;;;18.63;11.60;;;13.60;1.00;;;;;;5007570;28;20555;-77
2023/04/22 06:53:21;;;;;;;14.30;10.20;;;13.80;1.00;;;;;;5016283;28;21728;-77
2023/04/22 06:55:49;;;;;;;14.33;10.40;;;13.90;1.00;;;;;;5009797;28;20547;-76
2023/04/22 06:58:15;;;;;;;13.30;10.77;;;13.90;1.00;;;;;;5010494;28;20461;-77
2023/04/22 07:00:43;;;;;;;14.00;11.43;;;14.20;1.00;;;;;;5008653;28;20470;-78
2023/04/22 07:03:10;;;;;;;14.57;10.10;;;14.20;1.00;;;;;;5008913;28;21257;-76
2023/04/22 07:05:37;;;;;;;16.20;11.13;;;14.30;1.00;;;;;;4987785;28;20574;-76
2023/04/22 07:08:05;;;;;;;15.53;10.97;;;14.50;1.00;;;;;;4987060;28;20641;-78
2023/04/22 07:10:32;;;;;;;16.17;11.40;;;14.60;1.00;;;;;;4990892;28;20581;-76
2023/04/22 07:13:00;;;;;;;16.10;10.57;;;14.70;1.00;;;;;;4989832;28;20546;-77
2023/04/22 07:15:28;;;;;;;14.90;10.50;;;14.80;1.00;;;;;;4992351;28;20447;-77
2023/04/22 07:17:55;;;;;;;12.90;10.43;;;14.80;1.00;;;;;;4992547;28;20561;-77
2023/04/22 07:20:22;;;;;;;16.40;11.33;;;14.90;1.00;;;;;;4987303;28;20460;-77
2023/04/22 07:22:52;;;;;;;15.13;10.33;;;14.90;1.00;;;;;;4998099;28;20483;-79
2023/04/22 07:25:20;;;;;;;12.33;9.70;;;15.10;1.00;;;;;;4990498;28;20483;-78
2023/04/22 07:27:47;;;;;;;15.67;11.20;;;15.20;1.00;;;;;;4989148;28;20546;-78
2023/04/22 07:30:14;;;;;;;15.23;11.07;;;15.30;1.00;;;;;;4989161;28;20440;-78
2023/04/22 07:32:41;;;;;;;13.20;10.40;;;15.50;1.00;;;;;;4984848;28;20647;-75
2023/04/22 07:35:09;;;;;;;15.63;10.00;;;15.60;1.00;;;;;;4987785;28;21087;-77
2023/04/22 07:37:37;;;;;;;13.50;10.17;;;15.60;1.00;;;;;;4985384;28;20480;-80
2023/04/22 07:40:05;;;;;;;15.87;11.70;;;15.90;1.00;;;;;;4985812;28;20467;-77
2023/04/22 07:42:33;;;;;;;15.07;10.60;;;16.00;1.00;;;;;;4970763;28;20946;-77
2023/04/22 07:45:00;;;;;;;14.67;10.00;;;16.10;1.00;;;;;;4991018;28;20574;-80
2023/04/22 07:47:27;;;;;;;15.17;10.00;;;16.40;1.00;;;;;;4993705;28;20582;-77
2023/04/22 07:49:54;;;;;;;13.40;10.67;;;16.60;1.00;;;;;;4990808;28;20465;-78
2023/04/22 07:52:21;;;;;;;15.83;10.43;;;16.60;1.00;;;;;;4990168;28;20471;-78
2023/04/22 07:54:48;;;;;;;16.83;11.33;;;16.60;1.00;;;;;;4985904;28;21535;-78
2023/04/22 07:57:15;;;;;;;13.23;10.10;;;17.00;1.00;;;;;;4985003;28;20485;-77
2023/04/22 07:59:44;;;;;;;12.70;9.50;;;17.30;1.00;;;;;;4987993;28;20960;-79
2023/04/22 08:02:11;;;;;;;16.40;11.20;;;17.50;1.00;;;;;;4989507;28;20478;-77
2023/04/22 08:04:38;;;;;;;12.00;9.60;;;17.70;1.00;;;;;;4995240;28;20508;-79
2023/04/22 08:07:05;;;;;;;14.30;10.73;;;17.80;1.00;;;;;;5010321;28;20543;-78
2023/04/22 08:09:32;;;;;;;12.60;9.80;;;18.00;1.00;;;;;;5012801;28;20469;-80
2023/04/22 08:12:00;;;;;;;15.17;9.73;;;18.10;1.00;;;;;;5014115;28;20486;-78
2023/04/22 08:14:28;;;;;;;12.63;9.23;;;18.30;1.00;;;;;;5013851;28;20560;-79
2023/04/22 08:16:56;;;;;;;13.37;10.90;;;18.30;1.00;;;;;;5012350;28;20926;-77
2023/04/22 08:19:23;;;;;;;11.90;9.83;;;18.50;1.00;;;;;;5010177;28;20465;-79
2023/04/22 08:21:50;;;;;;;15.00;10.50;;;18.50;1.00;;;;;;5011967;28;20988;-79
2023/04/22 08:24:17;;;;;;;13.40;10.23;;;18.60;1.00;;;;;;5010124;28;20462;-79
2023/04/22 08:26:46;;;;;;;16.60;10.90;;;18.70;1.00;;;;;;5006593;28;20473;-80
2023/04/22 08:29:18;;;;;;;17.10;11.20;;;18.60;1.00;;;;;;5012698;28;20558;-80
2023/04/22 08:31:45;;;;;;;14.93;10.10;;;18.50;1.00;;;;;;5011886;28;21058;-79
2023/04/22 08:34:14;;;;;;;14.10;10.73;;;18.70;1.00;;;;;;5008265;28;20486;-79
2023/04/22 08:36:41;;;;;;;14.83;11.33;;;18.90;1.00;;;;;;5008492;28;20975;-78
2023/04/22 08:39:09;;;;;;;13.50;10.03;;;19.00;1.00;;;;;;5012592;28;20454;-79
2023/04/22 08:41:39;;;;;;;15.97;10.00;;;19.10;1.00;;;;;;5013766;28;20460;-80
2023/04/22 08:44:06;;;;;;;12.30;9.10;;;19.20;1.00;;;;;;5008991;28;20948;-78
2023/04/22 08:46:34;;;;;;;14.90;11.60;;;19.40;1.00;;;;;;5012953;28;20485;-79
2023/04/22 08:49:02;;;;;;;14.43;9.67;;;19.70;1.00;;;;;;5011823;28;20482;-78
2023/04/22 08:51:33;;;;;;;14.67;10.73;;;19.90;1.00;;;;;;5011129;28;20915;-79
2023/04/22 08:54:03;;;;;;;14.37;9.93;;;19.80;1.00;;;;;;5004117;28;20479;-76
2023/04/22 08:56:31;;;;;;;12.17;10.03;;;20.00;1.00;;;;;;5009947;28;20464;-77
2023/04/22 08:58:58;;;;;;;15.03;11.30;;;20.00;1.00;;;;;;5013802;28;20471;-77
2023/04/22 09:01:26;;;;;;;14.93;10.10;;;20.10;1.00;;;;;;5013044;28;20453;-78
2023/04/22 09:03:55;;;;;;;12.30;8.53;;;20.40;1.00;;;;;;5014539;28;20453;-77
2023/04/22 09:06:23;;;;;;;13.50;9.73;;;20.50;1.00;;;;;;5016830;28;20457;-80
2023/04/22 09:08:53;;;;;;;12.63;10.70;;;20.60;1.00;;;;;;5004581;28;20985;-77
2023/04/22 09:11:20;;;;;;;14.17;10.17;;;20.80;1.00;;;;;;5016077;28;20490;-79
2023/04/22 09:13:48;;;;;;;14.37;9.13;;;20.80;1.00;;;;;;5014182;28;20473;-80
2023/04/22 09:16:15;;;;;;;16.30;9.03;;;20.90;1.00;;;;;;5015763;28;20452;-80
2023/04/22 09:18:44;;;;;;;11.97;8.93;;;21.10;1.00;;;;;;5013947;28;20544;-80
2023/04/22 09:21:12;;;;;;;13.50;9.30;;;21.40;1.00;;;;;;5018971;28;20531;-78
2023/04/22 09:23:48;;;;;;;12.77;8.60;;;21.60;1.00;;;;;;5017839;28;20969;-78
2023/04/22 09:26:20;;;;;;;10.53;7.90;;;21.70;1.00;;;;;;5017491;28;20455;-78
2023/04/22 09:28:51;;;;;;;11.00;8.20;;;22.10;1.00;;;;;;4999532;28;20937;-79
2023/04/22 09:31:18;;;;;;;12.53;8.10;;;22.60;1.00;;;;;;5019921;28;20538;-79
2023/04/22 09:33:51;;;;;;;13.93;9.13;;;24.00;1.00;;;;;;5015634;28;20555;-79
2023/04/22 09:36:23;;;;;;;13.07;8.10;;;25.40;1.00;;;;;;4993130;28;20455;-78
2023/04/22 09:38:54;;;;;;;12.80;8.30;;;27.00;1.00;;;;;;5016482;28;20560;-80
2023/04/22 09:41:30;;;;;;;8.90;7.80;;;28.30;1.00;;;;;;5016937;28;20521;-78
2023/04/22 09:43:59;;;;;;;12.03;8.30;;;29.10;1.00;;;;;;5016047;28;20551;-80
2023/04/22 09:46:27;;;;;;;12.83;8.53;;;29.80;1.00;;;;;;5017666;28;20469;-79
2023/04/22 09:48:55;;;;;;;10.07;7.73;;;30.80;1.00;;;;;;5017436;28;20911;-79
2023/04/22 09:51:23;;;;;;;10.70;7.37;;;31.00;1.00;;;;;;4997919;28;20485;-80
2023/04/22 09:54:02;;;;;;;10.23;7.93;;;31.00;1.00;;;;;;5016076;28;21105;-80
2023/04/22 09:56:48;;;;;;;11.10;7.53;;;31.50;1.00;;;;;;5017343;28;20480;-78
2023/04/22 09:59:20;;;;;;;8.77;7.70;;;32.20;1.00;;;;;;5018737;28;20450;-78
2023/04/22 10:01:47;;;;;;;10.17;8.30;;;32.70;1.00;;;;;;5015700;28;20571;-78
2023/04/22 10:04:15;;;;;;;8.97;7.67;;;33.40;1.00;;;;;;5014609;28;20524;-80
2023/04/22 10:06:43;;;;;;;8.30;7.07;;;33.80;1.00;;;;;;5014583;28;20471;-79
2023/04/22 10:09:11;;;;;;;10.53;7.07;;;34.00;1.00;;;;;;5017807;28;20494;-78
2023/04/22 10:11:40;;;;;;;9.60;7.50;;;33.20;1.00;;;;;;5017967;28;20927;-80
2023/04/22 10:14:12;;;;;;;9.40;7.60;;;33.00;1.00;;;;;;5017792;28;20553;-79
2023/04/22 10:16:43;;;;;;;8.07;7.27;;;33.20;1.00;;;;;;5016913;28;20436;-80
2023/04/22 10:19:14;;;;;;;7.93;7.10;;;33.50;1.00;;;;;;5011887;28;20481;-78
2023/04/22 10:21:43;;;;;;;8.83;6.90;;;33.50;1.00;;;;;;5013347;28;20926;-79
2023/04/22 10:24:15;;;;;;;8.03;6.80;;;33.00;1.00;;;;;;5017053;28;20509;-79
2023/04/22 10:26:47;;;;;;;9.90;7.57;;;32.80;1.00;;;;;;5015354;28;20474;-80
2023/04/22 10:29:19;;;;;;;9.00;7.40;;;33.40;1.00;;;;;;5014145;28;20576;-79
2023/04/22 10:31:53;;;;;;;11.50;7.20;;;33.60;1.00;;;;;;5010915;28;20474;-78
2023/04/22 10:34:21;;;;;;;9.63;7.07;;;33.80;1.00;;;;;;5013652;28;20493;-79
2023/04/22 10:36:56;;;;;;;9.77;7.27;;;32.60;1.00;;;;;;5015043;28;20969;-80
2023/04/22 10:39:26;;;;;;;8.33;7.23;;;32.40;1.00;;;;;;5015069;28;20517;-79
2023/04/22 10:41:56;;;;;;;7.97;6.67;;;32.40;1.00;;;;;;5011411;28;20509;-78
2023/04/22 10:44:30;;;;;;;10.87;6.93;;;32.00;1.00;;;;;;5012234;28;20470;-79
2023/04/22 10:47:02;;;;;;;7.50;6.67;;;32.60;1.00;;;;;;5014251;28;20462;-78
2023/04/22 10:49:33;;;;;;;9.73;7.60;;;32.90;1.00;;;;;;4995693;28;20557;-79
2023/04/22 10:52:02;;;;;;;8.63;7.03;;;32.70;1.00;;;;;;5014161;28;20588;-79
2023/04/22 10:54:59;;;;;;;14.13;7.07;;;32.90;1.00;;;;;;4994808;28;20573;-79
2023/04/22 10:57:36;;;;;;;13.30;7.50;;;32.90;1.00;;;;;;5011079;28;20474;-77
2023/04/22 11:03:10;;;;;;;7.97;6.50;;;33.40;1.00;;;;;;5128991;27;20619;-79
2023/04/22 11:05:38;;;;;;;7.07;6.37;;;33.20;1.00;;;;;;5120462;27;20499;-80
2023/04/22 11:08:09;;;;;;;8.07;6.47;;;32.40;1.00;;;;;;5123068;27;20460;-80
2023/04/22 11:10:42;;;;;;;8.00;6.80;;;32.00;1.00;;;;;;5124195;27;20541;-80
2023/04/22 11:13:13;;;;;;;8.00;6.60;;;32.80;1.00;;;;;;5126099;27;20953;-82
2023/04/22 11:15:45;;;;;;;9.37;7.47;;;33.70;1.00;;;;;;5125482;27;20460;-80
2023/04/22 11:18:23;;;;;;;8.03;7.20;;;34.10;1.00;;;;;;5131499;27;20510;-79
2023/04/22 11:20:52;;;;;;;9.33;8.27;;;34.60;1.00;;;;;;5125303;27;20448;-82
2023/04/22 11:23:25;;;;;;;9.70;6.70;;;35.30;1.00;;;;;;5133127;27;20465;-81
2023/04/22 11:25:56;;;;;;;7.40;6.50;;;35.70;1.00;;;;;;5128269;27;20552;-81
2023/04/22 11:28:23;;;;;;;7.07;6.30;;;35.90;1.00;;;;;;5121296;27;20460;-81
2023/04/22 11:30:51;;;;;;;7.27;6.57;;;35.30;1.00;;;;;;5124575;27;20536;-80
2023/04/22 11:33:23;;;;;;;8.87;7.57;;;35.40;1.00;;;;;;5127609;27;20460;-82
2023/04/22 11:35:51;;;;;;;7.97;7.17;;;35.40;1.00;;;;;;5127505;27;20560;-80
2023/04/22 11:38:19;;;;;;;8.13;6.70;;;35.70;1.00;;;;;;5119688;27;20457;-80
2023/04/22 11:40:46;;;;;;;8.43;7.60;;;35.60;1.00;;;;;;5112195;27;20900;-80
2023/04/22 11:43:14;;;;;;;12.60;8.83;;;35.80;1.00;;;;;;5115755;27;20477;-81
2023/04/22 11:45:41;;;;;;;8.37;7.50;;;36.20;1.00;;;;;;5126074;27;20426;-81
2023/04/22 11:48:10;;;;;;;9.40;7.37;;;37.50;1.00;;;;;;5128467;27;20457;-81
2023/04/22 11:50:43;;;;;;;10.20;7.57;;;37.30;1.00;;;;;;5128907;27;20793;-83
2023/04/22 11:53:15;;;;;;;8.43;7.37;;;37.80;1.00;;;;;;5126124;27;20446;-81
2023/04/22 11:55:44;;;;;;;8.57;7.27;;;36.40;1.00;;;;;;5121810;27;20449;-79
2023/04/22 11:58:13;;;;;;;7.67;6.73;;;34.70;1.00;;;;;;5124896;27;20433;-78
2023/04/22 12:00:44;;;;;;;7.50;6.70;;;34.20;1.00;;;;;;5121575;27;20489;-79
2023/04/22 12:03:14;;;;;;;8.20;7.27;;;33.80;1.00;;;;;;5120371;27;20440;-80
2023/04/22 12:05:46;;;;;;;9.73;8.70;;;34.20;1.00;;;;;;5120721;27;20481;-79
2023/04/22 12:08:16;;;;;;;8.67;7.40;;;35.00;1.00;;;;;;5118508;27;20432;-80
2023/04/22 12:10:45;;;;;;;9.43;8.43;;;36.10;1.00;;;;;;5122798;27;20448;-78
2023/04/22 12:13:19;;;;;;;9.17;8.20;;;36.30;1.00;;;;;;5105742;27;20497;-80
2023/04/22 12:15:46;;;;;;;7.30;6.60;;;36.10;1.00;;;;;;5102904;27;20493;-79
2023/04/22 12:18:14;;;;;;;10.57;9.50;;;35.10;1.00;;;;;;5102877;27;20480;-79
2023/04/22 12:20:42;;;;;;;8.30;7.07;;;35.80;1.00;;;;;;5106985;27;20974;-80
2023/04/22 12:23:14;;;;;;;9.57;6.20;;;36.50;1.00;;;;;;5110514;27;21093;-79
2023/04/22 12:25:42;;;;;;;9.13;7.13;;;35.70;1.00;;;;;;5115233;27;20441;-80
2023/04/22 12:28:10;;;;;;;9.33;6.70;;;36.00;1.00;;;;;;5108460;27;20461;-79
2023/04/22 12:30:37;;;;;;;8.50;6.60;;;36.60;1.00;;;;;;5106722;27;20505;-79
2023/04/22 12:33:05;;;;;;;7.60;5.93;;;36.50;1.00;;;;;;5109624;27;20498;-79
2023/04/22 12:35:40;;;;;;;7.93;7.13;;;36.10;1.00;;;;;;5110704;27;20537;-81
2023/04/22 12:38:08;;;;;;;7.87;7.10;;;37.10;1.00;;;;;;5111369;27;20566;-80
2023/04/22 12:40:35;;;;;;;8.07;6.97;;;37.20;1.00;;;;;;5110575;27;20468;-80
2023/04/22 12:43:04;;;;;;;8.03;6.57;;;37.60;1.00;;;;;;5109922;27;20584;-80
2023/04/22 12:45:31;;;;;;;8.80;6.30;;;37.90;1.00;;;;;;5109303;27;20989;-79
2023/04/22 12:47:58;;;;;;;8.93;6.73;;;36.90;1.00;;;;;;5104528;27;20461;-79
2023/04/22 12:50:25;;;;;;;7.33;5.87;;;36.80;1.00;;;;;;5107098;27;20540;-78
2023/04/22 12:52:52;;;;;;;7.50;6.80;;;37.10;1.00;;;;;;5104059;27;20480;-79
2023/04/22 12:55:21;;;;;;;6.67;5.97;;;37.00;1.00;;;;;;5098653;27;22045;-78